createdAt,value
2019-05-21T00:00:07.423Z,18.36
2019-05-21T00:02:35.933Z,18.31
2019-05-21T00:05:08.055Z,18.42
2019-05-21T00:07:36.479Z,18.45
2019-05-21T00:10:06.642Z,18.37
2019-05-21T00:12:35.520Z,18.39
2019-05-21T00:15:04.210Z,18.40
2019-05-21T00:17:32.644Z,18.32
2019-05-21T00:20:01.019Z,18.23
2019-05-21T00:22:29.441Z,18.15
2019-05-21T00:24:57.894Z,18.09
2019-05-21T00:27:26.289Z,17.91
2019-05-21T00:30:30.973Z,17.79
2019-05-21T00:33:35.401Z,17.84
2019-05-21T00:36:41.337Z,17.83
2019-05-21T00:39:46.310Z,17.78
2019-05-21T00:42:17.783Z,17.63
2019-05-21T00:44:46.201Z,17.65
2019-05-21T00:47:14.752Z,17.62
2019-05-21T00:49:43.112Z,17.66
2019-05-21T00:52:11.615Z,17.63
2019-05-21T00:54:40.017Z,17.56
2019-05-21T00:57:08.488Z,17.68
2019-05-21T00:59:36.891Z,17.70
2019-05-21T01:02:05.308Z,17.77
2019-05-21T01:04:33.769Z,17.71
2019-05-21T01:07:02.567Z,17.62
2019-05-21T01:09:31.013Z,17.72
2019-05-21T01:11:59.478Z,17.77
2019-05-21T01:14:27.872Z,17.63
2019-05-21T01:16:56.291Z,17.40
2019-05-21T01:19:24.693Z,17.40
2019-05-21T01:21:53.117Z,17.46
2019-05-21T01:24:21.517Z,17.40
2019-05-21T01:26:49.939Z,17.31
2019-05-21T01:29:18.356Z,17.25
2019-05-21T01:31:46.766Z,17.19
2019-05-21T01:34:15.173Z,17.03
2019-05-21T01:36:43.580Z,17.02
2019-05-21T01:39:12.042Z,17.10
2019-05-21T01:41:40.531Z,17.09
2019-05-21T01:44:08.999Z,17.06
2019-05-21T01:46:37.410Z,17.12
2019-05-21T01:49:05.824Z,17.08
2019-05-21T01:51:34.219Z,17.09
2019-05-21T01:54:02.842Z,17.11
2019-05-21T01:56:31.249Z,16.91
2019-05-21T01:58:59.702Z,16.84
2019-05-21T02:01:28.110Z,16.82
2019-05-21T02:03:56.523Z,16.75
2019-05-21T02:06:25.328Z,16.70
2019-05-21T02:08:53.737Z,16.66
2019-05-21T02:11:22.140Z,16.64
2019-05-21T02:13:50.623Z,16.54
2019-05-21T02:16:19.049Z,16.56
2019-05-21T02:18:47.470Z,16.55
2019-05-21T02:21:15.905Z,16.53
2019-05-21T02:23:44.318Z,16.47
2019-05-21T02:26:12.794Z,16.40
2019-05-21T02:28:41.229Z,16.29
2019-05-21T02:31:09.632Z,16.20
2019-05-21T02:33:38.056Z,16.13
2019-05-21T02:36:06.728Z,16.15
2019-05-21T02:38:35.153Z,16.00
2019-05-21T02:41:03.546Z,16.01
2019-05-21T02:43:31.959Z,16.13
2019-05-21T02:46:00.365Z,16.16
2019-05-21T02:48:28.806Z,16.06
2019-05-21T02:50:57.200Z,16.10
2019-05-21T02:53:25.625Z,16.07
2019-05-21T02:55:54.022Z,16.03
2019-05-21T02:58:22.441Z,16.07
2019-05-21T03:00:58.403Z,16.05
2019-05-21T03:03:28.444Z,16.03
2019-05-21T03:06:12.344Z,16.07
2019-05-21T03:08:26.984Z,16.01
2019-05-21T03:10:55.382Z,16.03
2019-05-21T03:13:23.799Z,16.00
2019-05-21T03:15:52.213Z,15.99
2019-05-21T03:18:20.635Z,16.04
2019-05-21T03:20:49.103Z,15.92
2019-05-21T03:23:17.536Z,16.00
2019-05-21T03:25:45.972Z,16.02
2019-05-21T03:28:14.384Z,16.01
2019-05-21T03:30:42.839Z,16.10
2019-05-21T03:33:11.309Z,16.14
2019-05-21T03:35:39.742Z,16.17
2019-05-21T03:38:08.117Z,16.09
2019-05-21T03:40:36.528Z,16.09
2019-05-21T03:43:04.941Z,16.07
2019-05-21T03:45:33.360Z,16.07
2019-05-21T03:48:01.758Z,16.03
2019-05-21T03:50:30.168Z,15.99
2019-05-21T03:52:58.581Z,16.04
2019-05-21T03:55:26.997Z,16.04
2019-05-21T03:57:55.403Z,16.00
2019-05-21T04:00:23.818Z,16.01
2019-05-21T04:02:52.217Z,16.05
2019-05-21T04:05:25.314Z,15.94
2019-05-21T04:07:53.790Z,16.03
2019-05-21T04:10:22.859Z,16.06
2019-05-21T04:13:06.643Z,16.11
2019-05-21T04:15:38.430Z,16.18
2019-05-21T04:18:11.450Z,16.23
2019-05-21T04:20:39.847Z,16.19
2019-05-21T04:23:08.247Z,16.34
2019-05-21T04:25:36.726Z,16.36
2019-05-21T04:28:05.127Z,16.40
2019-05-21T04:30:33.568Z,16.47
2019-05-21T04:33:02.017Z,16.47
2019-05-21T04:35:30.382Z,16.51
2019-05-21T04:37:58.791Z,16.53
2019-05-21T04:40:27.209Z,16.49
2019-05-21T04:42:55.614Z,16.54
2019-05-21T04:45:24.029Z,16.50
2019-05-21T04:47:52.433Z,16.41
2019-05-21T04:50:20.899Z,16.49
2019-05-21T04:52:49.270Z,16.56
2019-05-21T04:55:17.699Z,16.50
2019-05-21T04:57:46.101Z,16.42
2019-05-21T05:00:14.768Z,16.39
2019-05-21T05:02:43.213Z,16.41
2019-05-21T05:05:11.770Z,16.43
2019-05-21T05:07:40.172Z,16.47
2019-05-21T05:10:08.728Z,16.55
2019-05-21T05:12:37.145Z,16.59
2019-05-21T05:15:06.680Z,16.62
2019-05-21T05:17:35.116Z,16.57
2019-05-21T05:20:04.163Z,16.73
2019-05-21T05:22:32.574Z,16.79
2019-05-21T05:25:00.999Z,16.72
2019-05-21T05:27:29.394Z,16.65
2019-05-21T05:29:57.805Z,16.60
2019-05-21T05:32:26.675Z,16.67
2019-05-21T05:34:55.072Z,16.65
2019-05-21T05:37:23.489Z,16.65
2019-05-21T05:39:51.892Z,16.69
2019-05-21T05:42:20.296Z,16.79
2019-05-21T05:44:48.697Z,16.88
2019-05-21T05:47:17.195Z,16.95
2019-05-21T05:49:52.953Z,16.98
2019-05-21T05:52:21.363Z,16.94
2019-05-21T05:54:49.767Z,16.95
2019-05-21T05:57:18.189Z,16.91
2019-05-21T05:59:46.590Z,16.91
2019-05-21T06:02:15.017Z,16.73
2019-05-21T06:04:43.425Z,16.74
2019-05-21T06:07:11.846Z,16.65
2019-05-21T06:09:40.251Z,16.74
2019-05-21T06:12:08.656Z,16.74
2019-05-21T06:14:37.063Z,16.62
2019-05-21T06:17:05.506Z,16.62
2019-05-21T06:19:33.914Z,16.63
2019-05-21T06:22:02.332Z,16.64
2019-05-21T06:24:30.729Z,16.72
2019-05-21T06:26:59.143Z,16.80
2019-05-21T06:29:27.550Z,16.92
2019-05-21T06:31:55.963Z,16.82
2019-05-21T06:34:24.452Z,16.82
2019-05-21T06:36:52.872Z,16.83
2019-05-21T06:39:21.277Z,16.98
2019-05-21T06:41:49.734Z,16.85
2019-05-21T06:44:18.144Z,16.91
2019-05-21T06:46:46.588Z,16.82
2019-05-21T06:49:15.031Z,16.75
2019-05-21T06:51:44.192Z,16.67
2019-05-21T06:54:12.598Z,16.72
2019-05-21T06:56:41.038Z,16.78
2019-05-21T06:59:09.454Z,16.82
2019-05-21T07:01:37.867Z,16.86
2019-05-21T07:04:06.309Z,16.89
2019-05-21T07:06:34.731Z,16.83
2019-05-21T07:09:04.308Z,16.80
2019-05-21T07:11:32.719Z,16.86
2019-05-21T07:14:01.134Z,16.78
2019-05-21T07:16:29.543Z,16.74
2019-05-21T07:18:57.949Z,16.74
2019-05-21T07:21:26.358Z,16.72
2019-05-21T07:23:54.776Z,16.85
2019-05-21T07:26:23.181Z,16.95
2019-05-21T07:28:52.739Z,16.75
2019-05-21T07:31:21.803Z,16.76
2019-05-21T07:33:50.218Z,16.80
2019-05-21T07:36:18.630Z,16.75
2019-05-21T07:38:53.212Z,16.66
2019-05-21T07:41:20.267Z,16.77
2019-05-21T07:43:47.330Z,16.78
2019-05-21T07:46:15.737Z,16.90
2019-05-21T07:48:44.162Z,16.85
2019-05-21T07:51:12.564Z,16.86
2019-05-21T07:53:40.986Z,16.94
2019-05-21T07:56:09.388Z,16.79
2019-05-21T07:58:37.809Z,16.72
2019-05-21T08:01:06.222Z,16.92
2019-05-21T08:03:34.640Z,16.94
2019-05-21T08:06:03.050Z,17.07
2019-05-21T08:08:31.472Z,17.15
2019-05-21T08:10:59.874Z,17.01
2019-05-21T08:13:28.281Z,17.04
2019-05-21T08:15:56.681Z,16.94
2019-05-21T08:18:25.100Z,17.04
2019-05-21T08:20:53.549Z,17.00
2019-05-21T08:23:21.952Z,16.93
2019-05-21T08:25:50.435Z,17.03
2019-05-21T08:28:18.866Z,17.06
2019-05-21T08:30:47.290Z,16.88
2019-05-21T08:33:15.702Z,16.95
2019-05-21T08:35:44.105Z,17.01
2019-05-21T08:38:12.527Z,17.04
2019-05-21T08:40:40.944Z,16.76
2019-05-21T08:43:09.357Z,16.95
2019-05-21T08:45:37.768Z,16.95
2019-05-21T08:48:06.216Z,17.16
2019-05-21T08:50:34.607Z,17.22
2019-05-21T08:53:03.221Z,17.17
2019-05-21T08:55:31.589Z,17.25
2019-05-21T08:58:07.044Z,17.35
2019-05-21T09:00:30.659Z,17.27
2019-05-21T09:02:59.073Z,17.18
2019-05-21T09:05:27.469Z,17.05
2019-05-21T09:07:56.033Z,17.03
2019-05-21T09:10:24.437Z,16.83
2019-05-21T09:12:52.846Z,16.83
2019-05-21T09:15:21.386Z,16.85
2019-05-21T09:17:49.792Z,16.84
2019-05-21T09:20:18.657Z,16.86
2019-05-21T09:22:47.141Z,16.67
2019-05-21T09:25:15.544Z,16.75
2019-05-21T09:27:43.952Z,16.77
2019-05-21T09:30:13.094Z,16.84
2019-05-21T09:32:41.499Z,16.73
2019-05-21T09:35:10.478Z,16.89
2019-05-21T09:37:38.956Z,17.06
2019-05-21T09:40:08.358Z,16.92
2019-05-21T09:42:36.772Z,16.73
2019-05-21T09:45:09.408Z,16.56
2019-05-21T09:47:37.870Z,16.61
2019-05-21T09:50:07.470Z,16.67
2019-05-21T09:52:35.867Z,16.49
2019-05-21T09:55:05.726Z,16.47
2019-05-21T09:57:54.295Z,16.50
2019-05-21T10:00:34.724Z,16.53
2019-05-21T10:03:05.267Z,16.43
2019-05-21T10:05:33.666Z,16.38
2019-05-21T10:08:02.105Z,16.46
2019-05-21T10:10:30.512Z,16.49
2019-05-21T10:12:58.925Z,16.64
2019-05-21T10:15:27.345Z,16.59
2019-05-21T10:17:55.793Z,16.61
2019-05-21T10:20:24.301Z,16.72
2019-05-21T10:22:52.707Z,16.82
2019-05-21T10:25:21.129Z,16.81
2019-05-21T10:27:49.538Z,16.71
2019-05-21T10:30:18.051Z,16.86
2019-05-21T10:32:46.460Z,16.95
2019-05-21T10:35:14.952Z,17.01
2019-05-21T10:37:54.573Z,16.99
2019-05-21T10:40:13.743Z,17.21
2019-05-21T10:42:42.166Z,17.15
2019-05-21T10:45:10.799Z,17.33
2019-05-21T10:47:39.197Z,17.36
2019-05-21T10:50:08.315Z,17.56
2019-05-21T10:52:36.743Z,17.44
2019-05-21T10:55:09.772Z,17.39
2019-05-21T10:57:38.181Z,17.34
2019-05-21T11:00:10.072Z,17.53
2019-05-21T11:02:40.109Z,17.55
2019-05-21T11:05:10.399Z,17.87
2019-05-21T11:07:38.798Z,17.42
2019-05-21T11:10:08.839Z,17.57
2019-05-21T11:12:37.239Z,17.86
2019-05-21T11:15:08.877Z,18.02
2019-05-21T11:17:49.927Z,18.13
2019-05-21T11:20:07.753Z,18.39
2019-05-21T11:22:36.184Z,18.48
2019-05-21T11:25:06.363Z,18.58
2019-05-21T11:27:34.767Z,18.56
2019-05-21T11:30:03.851Z,18.49
2019-05-21T11:32:32.256Z,18.13
2019-05-21T11:35:00.668Z,18.04
2019-05-21T11:37:29.079Z,17.92
2019-05-21T11:39:57.502Z,18.04
2019-05-21T11:42:25.899Z,18.02
2019-05-21T11:44:54.309Z,18.18
2019-05-21T11:47:22.721Z,18.36
2019-05-21T11:49:51.147Z,18.30
2019-05-21T11:52:19.541Z,18.51
2019-05-21T11:54:47.947Z,18.64
2019-05-21T11:57:16.429Z,18.56
2019-05-21T11:59:44.844Z,18.46
2019-05-21T12:02:13.415Z,18.45
2019-05-21T12:04:41.820Z,18.38
2019-05-21T12:07:10.268Z,18.59
2019-05-21T12:09:38.699Z,18.92
2019-05-21T12:12:07.106Z,19.02
2019-05-21T12:14:35.501Z,19.17
2019-05-21T12:17:03.913Z,18.98
2019-05-21T12:19:32.290Z,19.08
2019-05-21T12:22:00.698Z,18.91
2019-05-21T12:24:29.100Z,18.94
2019-05-21T12:26:57.543Z,18.90
2019-05-21T12:29:26.018Z,18.74
2019-05-21T12:31:54.477Z,18.70
2019-05-21T12:34:22.820Z,18.82
2019-05-21T12:36:51.238Z,18.62
2019-05-21T12:39:19.627Z,18.41
2019-05-21T12:41:48.026Z,18.34
2019-05-21T12:44:16.425Z,18.53
2019-05-21T12:46:44.828Z,18.58
2019-05-21T12:51:40.601Z,18.24
2019-05-21T12:54:09.024Z,18.14
2019-05-21T12:56:40.735Z,18.19
2019-05-21T12:59:07.634Z,18.33
2019-05-21T13:01:36.066Z,18.41
2019-05-21T13:04:04.593Z,18.44
2019-05-21T13:06:33.012Z,18.38
2019-05-21T13:09:01.477Z,18.27
2019-05-21T13:11:29.954Z,18.20
2019-05-21T13:13:58.362Z,18.21
2019-05-21T13:16:26.772Z,17.99
2019-05-21T13:18:55.182Z,17.89
2019-05-21T13:21:23.598Z,17.68
2019-05-21T13:23:51.996Z,17.58
2019-05-21T13:26:20.483Z,17.49
2019-05-21T13:28:48.887Z,17.27
2019-05-21T13:31:17.567Z,17.31
2019-05-21T13:33:46.053Z,17.23
2019-05-21T13:36:14.536Z,17.30
2019-05-21T13:38:42.929Z,17.04
2019-05-21T13:41:11.968Z,17.19
2019-05-21T13:43:40.379Z,16.96
2019-05-21T13:46:08.800Z,17.00
2019-05-21T13:48:37.217Z,16.71
2019-05-21T13:51:05.694Z,16.84
2019-05-21T13:53:34.097Z,17.01
2019-05-21T13:56:02.548Z,16.80
2019-05-21T13:58:32.099Z,16.90
2019-05-21T14:01:00.702Z,16.85
2019-05-21T14:03:29.154Z,16.83
2019-05-21T14:05:57.598Z,16.84
2019-05-21T14:08:26.251Z,16.82
2019-05-21T14:10:54.676Z,16.83
2019-05-21T14:13:23.226Z,16.82
2019-05-21T14:15:51.647Z,17.08
2019-05-21T14:18:20.052Z,17.17
2019-05-21T14:20:48.451Z,17.18
2019-05-21T14:23:16.875Z,17.03
2019-05-21T14:25:45.274Z,17.09
2019-05-21T14:28:13.698Z,17.09
2019-05-21T14:30:42.106Z,17.29
2019-05-21T14:33:10.528Z,17.38
2019-05-21T14:35:38.948Z,17.42
2019-05-21T14:38:07.393Z,17.51
2019-05-21T14:40:35.967Z,17.46
2019-05-21T14:43:04.424Z,17.44
2019-05-21T14:45:34.309Z,17.48
2019-05-21T14:48:03.032Z,17.39
2019-05-21T14:50:31.437Z,17.30
2019-05-21T14:52:59.867Z,17.49
2019-05-21T14:55:28.265Z,17.45
2019-05-21T14:57:58.834Z,17.46
2019-05-21T15:00:32.020Z,16.93
2019-05-21T15:03:00.437Z,16.67
2019-05-21T15:05:28.850Z,16.52
2019-05-21T15:07:57.270Z,16.53
2019-05-21T15:10:25.682Z,16.57
2019-05-21T15:12:54.093Z,16.68
2019-05-21T15:15:22.506Z,16.74
2019-05-21T15:17:50.917Z,16.82
2019-05-21T15:20:21.200Z,16.55
2019-05-21T15:22:49.617Z,16.38
2019-05-21T15:25:18.021Z,16.13
2019-05-21T15:27:46.450Z,16.15
2019-05-21T15:30:15.014Z,16.13
2019-05-21T15:32:43.444Z,16.33
2019-05-21T15:35:12.297Z,16.50
2019-05-21T15:37:44.660Z,16.45
2019-05-21T15:40:11.379Z,16.32
2019-05-21T15:42:39.815Z,16.51
2019-05-21T15:45:08.608Z,16.67
2019-05-21T15:47:37.007Z,16.77
2019-05-21T15:50:06.159Z,16.81
2019-05-21T15:52:34.586Z,16.73
2019-05-21T15:55:06.783Z,16.78
2019-05-21T15:57:33.205Z,16.53
2019-05-21T16:00:01.614Z,16.51
2019-05-21T16:02:30.033Z,16.37
2019-05-21T16:04:58.444Z,16.29
2019-05-21T16:07:26.870Z,16.18
2019-05-21T16:09:55.263Z,16.15
2019-05-21T16:12:23.748Z,15.91
2019-05-21T16:14:52.168Z,15.91
2019-05-21T16:17:20.571Z,16.13
2019-05-21T16:19:48.986Z,16.37
2019-05-21T16:22:17.391Z,16.53
2019-05-21T16:24:45.805Z,16.51
2019-05-21T16:27:14.216Z,16.44
2019-05-21T16:29:42.657Z,16.10
2019-05-21T16:32:11.089Z,15.83
2019-05-21T16:34:39.517Z,15.97
2019-05-21T16:37:07.934Z,15.88
2019-05-21T16:39:36.361Z,15.95
2019-05-21T16:42:05.127Z,15.82
2019-05-21T16:44:33.599Z,15.47
2019-05-21T16:47:02.289Z,15.56
2019-05-21T16:49:30.763Z,15.67
2019-05-21T16:51:59.230Z,15.53
2019-05-21T16:54:27.655Z,15.71
2019-05-21T16:56:56.074Z,15.88
2019-05-21T16:59:24.489Z,15.59
2019-05-21T17:01:52.902Z,15.58
2019-05-21T17:04:21.319Z,15.62
2019-05-21T17:06:49.767Z,15.71
2019-05-21T17:09:18.266Z,15.60
2019-05-21T17:11:58.924Z,15.33
2019-05-21T17:14:16.824Z,15.29
2019-05-21T17:16:45.233Z,15.29
2019-05-21T17:19:13.639Z,15.18
2019-05-21T17:21:42.043Z,15.29
2019-05-21T17:24:10.466Z,15.47
2019-05-21T17:26:38.885Z,15.41
2019-05-21T17:29:07.297Z,15.33
2019-05-21T17:31:35.706Z,15.12
2019-05-21T17:34:04.126Z,15.08
2019-05-21T17:36:32.561Z,15.02
2019-05-21T17:39:00.982Z,15.18
2019-05-21T17:41:29.389Z,15.12
2019-05-21T17:43:57.805Z,15.00
2019-05-21T17:46:26.221Z,14.73
2019-05-21T17:48:54.640Z,14.78
2019-05-21T17:51:23.045Z,14.77
2019-05-21T17:53:51.460Z,14.90
2019-05-21T17:56:19.869Z,14.93
2019-05-21T17:58:48.463Z,14.89
2019-05-21T18:01:16.877Z,14.95
2019-05-21T18:03:45.315Z,14.98
2019-05-21T18:06:14.468Z,14.81
2019-05-21T18:08:43.031Z,14.77
2019-05-21T18:11:12.143Z,14.83
2019-05-21T18:13:42.064Z,14.80
2019-05-21T18:16:11.288Z,14.77
2019-05-21T18:18:39.974Z,14.75
2019-05-21T18:21:08.824Z,14.81
2019-05-21T18:23:37.636Z,14.70
2019-05-21T18:26:06.296Z,14.75
2019-05-21T18:28:34.703Z,14.72
2019-05-21T18:31:03.277Z,14.70
2019-05-21T18:33:31.684Z,14.76
2019-05-21T18:36:00.110Z,14.81
2019-05-21T18:38:28.581Z,14.70
2019-05-21T18:40:57.013Z,14.44
2019-05-21T18:43:25.510Z,14.39
2019-05-21T18:45:53.923Z,14.34
2019-05-21T18:48:22.333Z,14.34
2019-05-21T18:50:50.747Z,14.20
2019-05-21T18:53:19.145Z,14.31
2019-05-21T18:55:47.569Z,14.25
2019-05-21T18:58:17.477Z,14.14
2019-05-21T19:00:46.597Z,14.22
2019-05-21T19:03:15.018Z,14.23
2019-05-21T19:05:43.580Z,14.26
2019-05-21T19:08:12.013Z,14.46
2019-05-21T19:10:40.433Z,14.35
2019-05-21T19:13:08.846Z,14.30
2019-05-21T19:15:37.334Z,14.21
2019-05-21T19:18:05.748Z,13.89
2019-05-21T19:20:34.167Z,14.02
2019-05-21T19:23:02.580Z,14.02
2019-05-21T19:25:31.029Z,13.90
2019-05-21T19:27:59.426Z,13.82
2019-05-21T19:30:28.150Z,13.82
2019-05-21T19:32:56.770Z,13.91
2019-05-21T19:35:25.254Z,14.01
2019-05-21T19:37:53.743Z,14.04
2019-05-21T19:40:22.332Z,14.15
2019-05-21T19:42:54.865Z,14.10
2019-05-21T19:45:21.090Z,14.23
2019-05-21T19:47:49.498Z,13.99
2019-05-21T19:50:17.923Z,14.04
2019-05-21T19:52:46.335Z,14.13
2019-05-21T19:55:14.826Z,14.17
2019-05-21T19:57:43.632Z,14.12
2019-05-21T20:00:15.115Z,14.19
2019-05-21T20:02:43.548Z,14.14
2019-05-21T20:05:12.397Z,14.14
2019-05-21T20:07:41.398Z,14.11
2019-05-21T20:10:10.314Z,14.10
2019-05-21T20:12:38.875Z,14.11
2019-05-21T20:15:09.756Z,14.29
2019-05-21T20:17:39.846Z,14.20
2019-05-21T20:20:10.207Z,14.15
2019-05-21T20:22:39.770Z,14.08
2019-05-21T20:25:08.468Z,14.02
2019-05-21T20:27:36.962Z,13.68
2019-05-21T20:30:13.147Z,13.69
2019-05-21T20:32:42.883Z,13.83
2019-05-21T20:35:13.277Z,13.68
2019-05-21T20:37:43.316Z,13.81
2019-05-21T20:40:13.453Z,13.82
2019-05-21T20:42:42.595Z,13.54
2019-05-21T20:45:14.478Z,13.48
2019-05-21T20:47:44.520Z,13.52
2019-05-21T20:50:14.924Z,13.38
2019-05-21T20:52:43.794Z,13.44
2019-05-21T20:55:12.265Z,13.31
2019-05-21T20:57:41.046Z,13.46
2019-05-21T21:00:10.970Z,13.39
2019-05-21T21:02:41.631Z,13.36
2019-05-21T21:05:11.985Z,13.34
2019-05-21T21:07:41.121Z,13.21
2019-05-21T21:10:11.846Z,13.27
2019-05-21T21:12:41.872Z,13.32
2019-05-21T21:15:11.488Z,13.32
2019-05-21T21:17:40.161Z,13.41
2019-05-21T21:20:09.922Z,13.08
2019-05-21T21:22:38.334Z,13.06
2019-05-21T21:25:07.266Z,12.94
2019-05-21T21:27:36.513Z,13.08
2019-05-21T21:30:08.580Z,12.98
2019-05-21T21:32:37.165Z,13.05
2019-05-21T21:35:06.476Z,12.92
2019-05-21T21:37:35.053Z,12.99
2019-05-21T21:40:05.277Z,12.98
2019-05-21T21:42:33.762Z,12.92
2019-05-21T21:45:02.171Z,13.09
2019-05-21T21:47:30.965Z,13.05
2019-05-21T21:49:59.444Z,13.09
2019-05-21T21:52:29.798Z,13.06
2019-05-21T21:54:58.277Z,13.05
2019-05-21T21:57:26.706Z,12.96
2019-05-21T21:59:55.591Z,13.01
2019-05-21T22:02:31.055Z,13.03
2019-05-21T22:04:59.976Z,12.98
2019-05-21T22:07:28.780Z,12.97
2019-05-21T22:09:57.246Z,13.07
2019-05-21T22:12:26.771Z,13.19
2019-05-21T22:14:57.654Z,13.06
2019-05-21T22:17:26.153Z,12.99
2019-05-21T22:19:54.555Z,12.95
2019-05-21T22:22:23.521Z,12.94
2019-05-21T22:24:51.934Z,12.76
2019-05-21T22:27:20.813Z,12.81
2019-05-21T22:29:49.218Z,12.86
2019-05-21T22:32:17.646Z,13.01
2019-05-21T22:34:46.064Z,12.67
2019-05-21T22:37:16.276Z,12.67
2019-05-21T22:39:45.972Z,12.60
2019-05-21T22:42:16.064Z,12.71
2019-05-21T22:44:44.700Z,12.78
2019-05-21T22:47:14.158Z,12.80
2019-05-21T22:49:42.563Z,12.64
2019-05-21T22:52:11.070Z,12.71
2019-05-21T22:54:39.490Z,12.50
2019-05-21T22:57:07.895Z,12.47
2019-05-21T22:59:36.330Z,12.43
2019-05-21T23:02:06.554Z,12.46
2019-05-21T23:04:35.043Z,12.41
2019-05-21T23:07:04.425Z,12.50
2019-05-21T23:09:32.843Z,12.61
2019-05-21T23:12:01.627Z,12.64
2019-05-21T23:14:30.410Z,12.70
2019-05-21T23:16:58.811Z,12.58
2019-05-21T23:19:27.909Z,12.77
2019-05-21T23:21:56.591Z,12.85
2019-05-21T23:24:25.915Z,12.69
2019-05-21T23:26:55.295Z,12.80
2019-05-21T23:29:24.160Z,12.93
2019-05-21T23:31:53.398Z,12.86
2019-05-21T23:34:22.559Z,12.75
2019-05-21T23:36:51.448Z,12.71
2019-05-21T23:39:21.571Z,12.65
2019-05-21T23:41:50.126Z,12.53
2019-05-21T23:44:18.556Z,12.30
2019-05-21T23:46:47.035Z,12.45
2019-05-21T23:49:15.518Z,12.38
2019-05-21T23:51:44.003Z,12.54
2019-05-21T23:54:12.786Z,12.85
2019-05-21T23:56:41.189Z,12.70
2019-05-21T23:59:09.610Z,12.58
